マリエハムン の空港の天気 - METARとTAF

Mariehamn / Aland Island ( EFMA / MHQ ) - オーランド諸島 マリエハムン
飛行場実況気象(Metar)
観測時間02/05 21:20 EET (02/05 19:20 UTC)
風向・風速西北西 4m/s
視程10km以上
天気現象
なし
気温0℃
湿度80%
気圧1030hPa
METAREFMA 051920Z AUTO 29007KT 250V320 CAVOK 00/M03 Q1030
過去の天気等 Google飛行場航空写真 Wunderground天気予報

過去48時間のMETAR

飛行場予報(TAF)
発表時間: 2/05 19:26 EET (2/05 17:26 UTC)
予報対象時間: 5日20時 EET ~ 6日5時 EET
風向・風速西 4m/s
視程10km以上
なし
TAF EFMA 051726Z 0518/0603 28007KT CAVOK